createdAt,value
2023-05-10T00:00:13.976Z,13.63
2023-05-10T00:02:41.612Z,3.63
2023-05-10T00:05:08.657Z,4.80
2023-05-10T00:07:35.115Z,4.90
2023-05-10T00:10:01.625Z,9.60
2023-05-10T00:12:28.116Z,4.30
2023-05-10T00:14:54.653Z,4.60
2023-05-10T00:17:21.063Z,5.90
2023-05-10T00:19:47.522Z,9.43
2023-05-10T00:22:13.975Z,3.70
2023-05-10T00:24:40.988Z,3.47
2023-05-10T00:27:07.390Z,7.30
2023-05-10T00:29:34.797Z,6.47
2023-05-10T00:32:01.296Z,4.00
2023-05-10T00:34:28.290Z,4.13
2023-05-10T00:36:54.840Z,4.50
2023-05-10T00:39:21.460Z,6.37
2023-05-10T00:41:47.994Z,4.37
2023-05-10T00:44:15.651Z,3.80
2023-05-10T00:46:42.786Z,4.03
2023-05-10T00:49:09.518Z,4.80
2023-05-10T00:51:36.059Z,5.30
2023-05-10T00:54:03.618Z,6.70
2023-05-10T00:56:30.847Z,4.27
2023-05-10T00:58:58.077Z,4.80
2023-05-10T01:01:25.448Z,4.10
2023-05-10T01:03:52.166Z,5.07
2023-05-10T01:06:18.665Z,6.17
2023-05-10T01:08:45.667Z,4.50
2023-05-10T01:11:12.212Z,4.60
2023-05-10T01:13:41.831Z,4.53
2023-05-10T01:16:09.136Z,5.03
2023-05-10T01:18:39.278Z,5.43
2023-05-10T01:21:13.616Z,4.50
2023-05-10T01:23:55.363Z,6.43
2023-05-10T01:26:41.010Z,4.17
2023-05-10T01:29:32.286Z,11.73
2023-05-10T01:32:15.325Z,6.63
2023-05-10T01:34:53.785Z,7.07
2023-05-10T01:37:55.068Z,4.47
2023-05-10T01:40:42.761Z,4.53
2023-05-10T01:43:17.893Z,6.13
2023-05-10T01:46:05.524Z,4.47
2023-05-10T01:48:33.971Z,6.67
2023-05-10T01:51:00.799Z,5.93
2023-05-10T01:53:29.157Z,5.47
2023-05-10T01:55:57.197Z,5.90
2023-05-10T01:58:33.616Z,5.70
2023-05-10T02:01:04.069Z,6.63
2023-05-10T02:03:33.103Z,5.07
2023-05-10T02:06:00.151Z,4.57
2023-05-10T02:08:27.187Z,4.97
2023-05-10T02:10:57.073Z,7.60
2023-05-10T02:13:25.646Z,5.97
2023-05-10T02:15:53.977Z,5.40
2023-05-10T02:18:22.881Z,8.73
2023-05-10T02:20:49.699Z,9.90
2023-05-10T02:23:18.390Z,4.87
2023-05-10T02:25:46.573Z,5.77
2023-05-10T02:28:15.792Z,4.50
2023-05-10T02:30:42.639Z,5.97
2023-05-10T02:33:09.624Z,6.90
2023-05-10T02:35:36.998Z,6.13
2023-05-10T02:38:05.114Z,4.60
2023-05-10T02:40:33.442Z,5.77
2023-05-10T02:43:00.355Z,4.80
2023-05-10T02:45:31.207Z,4.63
2023-05-10T02:47:57.950Z,10.83
2023-05-10T02:50:28.395Z,4.53
2023-05-10T02:53:00.524Z,9.17
2023-05-10T02:55:33.714Z,5.57
2023-05-10T02:58:02.097Z,6.10
2023-05-10T03:00:29.283Z,7.90
2023-05-10T03:02:55.925Z,5.03
2023-05-10T03:05:22.791Z,4.90
2023-05-10T03:07:49.407Z,5.03
2023-05-10T03:10:16.125Z,4.80
2023-05-10T03:13:01.450Z,4.90
2023-05-10T03:15:35.799Z,5.17
2023-05-10T03:18:13.129Z,6.60
2023-05-10T03:20:43.617Z,4.60
2023-05-10T03:23:21.782Z,4.80
2023-05-10T03:25:50.270Z,6.03
2023-05-10T03:28:18.599Z,6.07
2023-05-10T03:30:46.708Z,4.77
2023-05-10T03:33:14.250Z,5.23
2023-05-10T03:35:45.102Z,5.80
2023-05-10T03:38:11.696Z,8.90
2023-05-10T03:40:38.464Z,6.20
2023-05-10T03:43:05.147Z,6.60
2023-05-10T03:45:32.031Z,7.97
2023-05-10T03:47:59.586Z,6.23
2023-05-10T03:50:27.307Z,6.40
2023-05-10T03:52:54.868Z,5.40
2023-05-10T03:55:21.840Z,5.73
2023-05-10T03:57:50.426Z,5.10
2023-05-10T04:00:17.978Z,6.97
2023-05-10T04:02:48.185Z,6.27
2023-05-10T04:05:18.935Z,6.50
2023-05-10T04:07:45.422Z,4.80
2023-05-10T04:10:12.694Z,7.20
2023-05-10T04:12:39.196Z,8.40
2023-05-10T04:15:06.274Z,5.23
2023-05-10T04:17:32.806Z,6.13
2023-05-10T04:19:59.542Z,4.97
2023-05-10T04:22:26.053Z,7.70
2023-05-10T04:24:52.540Z,11.03
2023-05-10T04:27:18.981Z,6.90
2023-05-10T04:29:45.545Z,5.37
2023-05-10T04:32:11.940Z,7.00
2023-05-10T04:34:38.447Z,8.13
2023-05-10T04:37:05.217Z,5.90
2023-05-10T04:39:32.082Z,7.20
2023-05-10T04:41:58.547Z,5.60
2023-05-10T04:44:24.988Z,5.90
2023-05-10T04:46:51.424Z,5.67
2023-05-10T04:49:18.942Z,6.40
2023-05-10T04:51:45.490Z,6.40
2023-05-10T04:54:11.994Z,6.50
2023-05-10T04:56:38.387Z,5.83
2023-05-10T04:59:05.043Z,11.73
2023-05-10T05:01:31.527Z,6.77
2023-05-10T05:03:58.219Z,5.40
2023-05-10T05:06:26.090Z,6.77
2023-05-10T05:08:52.679Z,4.97
2023-05-10T05:11:19.176Z,5.70
2023-05-10T05:13:45.841Z,7.43
2023-05-10T05:16:12.415Z,7.13
2023-05-10T05:18:39.775Z,7.30
2023-05-10T05:21:17.001Z,5.30
2023-05-10T05:23:44.191Z,5.23
2023-05-10T05:26:11.525Z,6.07
2023-05-10T05:28:39.409Z,8.13
2023-05-10T05:31:06.883Z,5.93
2023-05-10T05:33:33.757Z,5.33
2023-05-10T05:36:07.175Z,8.17
2023-05-10T05:38:33.851Z,4.83
2023-05-10T05:41:00.390Z,5.80
2023-05-10T05:43:27.145Z,5.80
2023-05-10T05:45:58.866Z,9.27
2023-05-10T05:48:25.636Z,6.23
2023-05-10T05:50:56.061Z,6.37
2023-05-10T05:53:22.743Z,5.43
2023-05-10T05:55:56.747Z,7.23
2023-05-10T05:58:23.691Z,5.30
2023-05-10T06:00:50.203Z,6.10
2023-05-10T06:03:16.960Z,6.77
2023-05-10T06:05:43.427Z,4.93
2023-05-10T06:08:10.222Z,5.47
2023-05-10T06:10:37.123Z,6.03
2023-05-10T06:13:03.743Z,7.10
2023-05-10T06:15:30.216Z,6.00
2023-05-10T06:17:57.392Z,8.33
2023-05-10T06:20:23.924Z,9.00
2023-05-10T06:22:50.573Z,5.20
2023-05-10T06:25:19.016Z,5.27
2023-05-10T06:27:48.942Z,5.60
2023-05-10T06:30:17.699Z,4.80
2023-05-10T06:32:45.086Z,6.10
2023-05-10T06:35:11.671Z,5.20
2023-05-10T06:37:38.313Z,5.00
2023-05-10T06:40:05.980Z,4.70
2023-05-10T06:42:32.402Z,4.40
2023-05-10T06:44:58.803Z,6.07
2023-05-10T06:47:25.928Z,10.37
2023-05-10T06:49:52.321Z,4.80
2023-05-10T06:52:18.811Z,5.40
2023-05-10T06:54:45.351Z,11.53
2023-05-10T06:57:23.315Z,5.00
2023-05-10T06:59:57.501Z,4.97
2023-05-10T07:02:24.109Z,7.83
2023-05-10T07:04:51.058Z,7.40
2023-05-10T07:07:17.793Z,7.73
2023-05-10T07:09:44.263Z,10.27
2023-05-10T07:12:13.457Z,4.67
2023-05-10T07:14:41.343Z,5.33
2023-05-10T07:17:07.861Z,7.33
2023-05-10T07:19:34.460Z,4.90
2023-05-10T07:22:01.203Z,5.63
2023-05-10T07:24:27.865Z,6.27
2023-05-10T07:26:54.352Z,5.40
2023-05-10T07:29:20.794Z,6.90
2023-05-10T07:31:47.338Z,5.53
2023-05-10T07:34:13.782Z,4.60
2023-05-10T07:36:40.255Z,5.27
2023-05-10T07:39:06.769Z,4.37
2023-05-10T07:41:35.064Z,4.40
2023-05-10T07:44:02.215Z,5.03
2023-05-10T07:46:29.542Z,6.40
2023-05-10T07:48:56.417Z,4.60
2023-05-10T07:51:23.207Z,5.93
2023-05-10T07:53:49.907Z,5.00
2023-05-10T07:56:30.615Z,7.53
2023-05-10T07:58:57.754Z,4.60
2023-05-10T08:01:24.882Z,4.90
2023-05-10T08:03:52.210Z,6.03
2023-05-10T08:06:20.003Z,9.20
2023-05-10T08:08:50.282Z,5.07
2023-05-10T08:11:18.404Z,7.27
2023-05-10T08:13:45.846Z,11.03
2023-05-10T08:16:12.616Z,5.47
2023-05-10T08:18:39.848Z,5.87
2023-05-10T08:21:06.601Z,5.73
2023-05-10T08:23:33.658Z,5.37
2023-05-10T08:26:00.878Z,5.63
2023-05-10T08:28:28.074Z,7.30
2023-05-10T08:30:54.525Z,5.00
2023-05-10T08:33:21.197Z,6.10
2023-05-10T08:35:47.812Z,5.40
2023-05-10T08:38:14.473Z,6.03
2023-05-10T08:40:43.881Z,5.40
2023-05-10T08:43:13.000Z,5.60
2023-05-10T08:45:41.346Z,6.37
2023-05-10T08:48:09.095Z,5.20
2023-05-10T08:50:42.023Z,5.90
2023-05-10T08:53:13.622Z,6.27
2023-05-10T08:55:41.204Z,5.10
2023-05-10T08:58:07.803Z,6.93
2023-05-10T09:00:34.855Z,9.10
2023-05-10T09:03:02.537Z,5.93
2023-05-10T09:05:29.155Z,6.87
2023-05-10T09:07:55.718Z,8.33
2023-05-10T09:10:24.004Z,7.40
2023-05-10T09:12:52.310Z,6.07
2023-05-10T09:15:20.852Z,8.17
2023-05-10T09:17:48.332Z,8.33
2023-05-10T09:20:15.363Z,6.53
2023-05-10T09:22:42.195Z,6.60
2023-05-10T09:25:14.367Z,7.40
2023-05-10T09:27:42.744Z,7.17
2023-05-10T09:30:10.064Z,6.87
2023-05-10T09:32:41.097Z,9.33
2023-05-10T09:35:16.100Z,9.57
2023-05-10T09:37:46.991Z,9.30
2023-05-10T09:40:21.756Z,7.63
2023-05-10T09:42:58.425Z,8.33
2023-05-10T09:45:27.622Z,8.50
2023-05-10T09:47:54.671Z,8.73
2023-05-10T09:50:21.926Z,10.17
2023-05-10T09:52:51.978Z,8.13
2023-05-10T09:55:21.052Z,9.27
2023-05-10T09:57:49.272Z,8.60
2023-05-10T10:00:21.882Z,8.73
2023-05-10T10:02:56.244Z,8.60
2023-05-10T10:05:31.922Z,8.30
2023-05-10T10:08:00.114Z,8.90
2023-05-10T10:10:28.293Z,9.47
2023-05-10T10:12:55.979Z,9.27
2023-05-10T10:15:23.536Z,9.20
2023-05-10T10:17:51.481Z,10.23
2023-05-10T10:20:20.146Z,9.03
2023-05-10T10:22:47.923Z,10.10
2023-05-10T10:25:17.066Z,9.17
2023-05-10T10:27:52.790Z,9.40
2023-05-10T10:30:43.722Z,9.77
2023-05-10T10:33:37.147Z,9.13
2023-05-10T10:36:05.068Z,8.63
2023-05-10T10:38:46.772Z,9.20
2023-05-10T10:41:50.598Z,11.77
2023-05-10T10:44:30.239Z,11.00
2023-05-10T10:47:31.964Z,10.03
2023-05-10T10:50:01.462Z,9.50
2023-05-10T10:52:36.141Z,10.80
2023-05-10T10:55:10.165Z,10.30
2023-05-10T10:57:52.699Z,11.13
2023-05-10T11:00:38.721Z,10.63
2023-05-10T11:03:08.193Z,10.33
2023-05-10T11:05:46.425Z,10.70
2023-05-10T11:08:12.980Z,10.23
2023-05-10T11:10:40.081Z,10.73
2023-05-10T11:13:08.676Z,13.80
2023-05-10T11:15:35.057Z,12.07
2023-05-10T11:18:18.917Z,16.70
2023-05-10T11:20:51.525Z,10.60
2023-05-10T11:23:18.978Z,10.20
2023-05-10T11:25:46.694Z,10.70
2023-05-10T11:28:14.156Z,10.07
2023-05-10T11:30:41.697Z,10.40
2023-05-10T11:33:09.447Z,10.07
2023-05-10T11:35:43.026Z,10.80
2023-05-10T11:38:11.497Z,10.20
2023-05-10T11:40:38.998Z,10.17
2023-05-10T11:43:06.748Z,12.07
2023-05-10T11:45:34.568Z,10.07
2023-05-10T11:48:02.657Z,10.63
2023-05-10T11:50:29.503Z,13.03
2023-05-10T11:52:57.792Z,11.20
2023-05-10T11:55:25.230Z,11.93
2023-05-10T11:57:55.584Z,11.63
2023-05-10T12:00:22.572Z,12.10
2023-05-10T12:02:49.691Z,11.83
2023-05-10T12:05:16.764Z,11.90
2023-05-10T12:07:43.567Z,12.67
2023-05-10T12:10:20.528Z,11.30
2023-05-10T12:12:51.086Z,10.30
2023-05-10T12:15:25.633Z,10.90
2023-05-10T12:17:52.284Z,12.87
2023-05-10T12:20:23.766Z,10.57
2023-05-10T12:22:55.715Z,10.90
2023-05-10T12:25:24.199Z,11.07
2023-05-10T12:27:56.856Z,10.57
2023-05-10T12:30:29.481Z,10.73
2023-05-10T12:33:08.439Z,10.70
2023-05-10T12:35:50.192Z,10.00
2023-05-10T12:38:30.739Z,8.87
2023-05-10T12:40:59.233Z,8.40
2023-05-10T12:43:25.874Z,8.00
2023-05-10T12:45:52.559Z,8.50
2023-05-10T12:48:19.340Z,8.40
2023-05-10T12:50:46.668Z,9.40
2023-05-10T12:53:17.479Z,7.23
2023-05-10T12:55:44.745Z,7.90
2023-05-10T12:58:15.811Z,8.40
2023-05-10T13:00:47.854Z,8.43
2023-05-10T13:03:14.513Z,8.23
2023-05-10T13:05:40.958Z,7.97
2023-05-10T13:08:07.711Z,9.53
2023-05-10T13:10:34.222Z,8.20
2023-05-10T13:13:00.793Z,7.60
2023-05-10T13:15:27.449Z,6.77
2023-05-10T13:17:55.455Z,6.93
2023-05-10T13:20:21.919Z,6.90
2023-05-10T13:22:49.578Z,7.23
2023-05-10T13:25:16.929Z,7.30
2023-05-10T13:27:43.853Z,7.17
2023-05-10T13:30:10.705Z,9.30
2023-05-10T13:32:37.323Z,7.50
2023-05-10T13:35:04.470Z,7.40
2023-05-10T13:37:32.159Z,7.33
2023-05-10T13:39:58.658Z,7.40
2023-05-10T13:42:25.270Z,7.20
2023-05-10T13:44:52.405Z,8.10
2023-05-10T13:47:19.231Z,8.23
2023-05-10T13:49:45.637Z,7.47
2023-05-10T13:52:13.087Z,12.80
2023-05-10T13:54:39.645Z,8.70
2023-05-10T13:57:07.509Z,8.87
2023-05-10T13:59:33.940Z,8.53
2023-05-10T14:02:00.992Z,8.23
2023-05-10T14:04:27.442Z,9.03
2023-05-10T14:06:54.106Z,8.47
2023-05-10T14:09:20.997Z,8.67
2023-05-10T14:11:47.474Z,9.70
2023-05-10T14:14:14.449Z,8.87
2023-05-10T14:16:45.253Z,9.50
2023-05-10T14:19:13.678Z,8.77
2023-05-10T14:21:40.435Z,8.57
2023-05-10T14:24:08.071Z,9.10
2023-05-10T14:26:35.512Z,7.90
2023-05-10T14:29:02.132Z,9.10
2023-05-10T14:31:31.412Z,9.33
2023-05-10T14:33:58.656Z,8.80
2023-05-10T14:36:25.287Z,8.03
2023-05-10T14:38:52.554Z,9.33
2023-05-10T14:41:19.396Z,8.90
2023-05-10T14:43:45.809Z,7.97
2023-05-10T14:46:12.441Z,8.87
2023-05-10T14:48:38.936Z,7.93
2023-05-10T14:51:05.730Z,7.37
2023-05-10T14:53:32.154Z,8.20
2023-05-10T14:55:58.824Z,8.23
2023-05-10T14:58:25.271Z,7.73
2023-05-10T15:00:52.109Z,7.43
2023-05-10T15:03:19.053Z,7.67
2023-05-10T15:05:46.154Z,7.87
2023-05-10T15:08:13.466Z,10.00
2023-05-10T15:10:40.798Z,8.30
2023-05-10T15:13:07.225Z,7.30
2023-05-10T15:15:33.799Z,6.57
2023-05-10T15:18:00.347Z,7.33
2023-05-10T15:20:27.080Z,7.27
2023-05-10T15:22:53.496Z,7.00
2023-05-10T15:25:21.003Z,7.63
2023-05-10T15:27:47.493Z,7.67
2023-05-10T15:30:14.335Z,6.00
2023-05-10T15:32:41.433Z,7.03
2023-05-10T15:35:11.487Z,6.80
2023-05-10T15:37:38.678Z,8.47
2023-05-10T15:40:05.909Z,9.57
2023-05-10T15:42:32.761Z,8.57
2023-05-10T15:45:00.069Z,7.73
2023-05-10T15:47:28.335Z,7.80
2023-05-10T15:49:55.051Z,6.27
2023-05-10T15:52:21.843Z,6.60
2023-05-10T15:54:48.329Z,6.90
2023-05-10T15:57:14.772Z,6.40
2023-05-10T15:59:41.638Z,6.10
2023-05-10T16:02:10.828Z,6.47
2023-05-10T16:04:37.893Z,6.43
2023-05-10T16:07:04.634Z,5.53
2023-05-10T16:09:31.198Z,6.13
2023-05-10T16:11:57.701Z,6.00
2023-05-10T16:14:24.817Z,6.10
2023-05-10T16:16:51.661Z,7.40
2023-05-10T16:19:18.615Z,7.53
2023-05-10T16:21:45.441Z,7.50
2023-05-10T16:24:12.092Z,8.07
2023-05-10T16:26:41.179Z,9.57
2023-05-10T16:29:08.398Z,7.70
2023-05-10T16:31:35.317Z,8.03
2023-05-10T16:34:02.029Z,8.40
2023-05-10T16:36:29.650Z,7.57
2023-05-10T16:38:56.539Z,7.57
2023-05-10T16:41:23.168Z,8.07
2023-05-10T16:43:50.130Z,7.70
2023-05-10T16:46:16.830Z,7.43
2023-05-10T16:48:43.433Z,6.53
2023-05-10T16:51:10.051Z,5.37
2023-05-10T16:53:36.520Z,6.40
2023-05-10T16:56:03.354Z,5.87
2023-05-10T16:58:29.904Z,5.57
2023-05-10T17:00:56.562Z,5.70
2023-05-10T17:03:23.301Z,5.30
2023-05-10T17:05:50.056Z,5.23
2023-05-10T17:08:16.682Z,5.10
2023-05-10T17:10:43.182Z,4.93
2023-05-10T17:13:10.598Z,5.30
2023-05-10T17:15:38.590Z,5.53
2023-05-10T17:18:05.431Z,5.30
2023-05-10T17:20:32.090Z,4.87
2023-05-10T17:22:58.590Z,4.30
2023-05-10T17:25:25.210Z,4.00
2023-05-10T17:27:51.829Z,4.40
2023-05-10T17:30:22.730Z,4.23
2023-05-10T17:32:49.199Z,3.87
2023-05-10T17:35:16.062Z,3.73
2023-05-10T17:37:44.002Z,4.13
2023-05-10T17:40:11.579Z,3.90
2023-05-10T17:42:38.130Z,4.47
2023-05-10T17:45:04.928Z,4.03
2023-05-10T17:47:31.612Z,5.10
2023-05-10T17:49:58.131Z,4.97
2023-05-10T17:52:24.527Z,4.90
2023-05-10T17:54:51.209Z,5.00
2023-05-10T17:57:18.337Z,6.40
2023-05-10T17:59:44.936Z,5.93
2023-05-10T18:02:11.357Z,6.10
2023-05-10T18:04:40.157Z,5.90
2023-05-10T18:07:07.786Z,6.23
2023-05-10T18:09:34.443Z,5.60
2023-05-10T18:12:03.947Z,5.80
2023-05-10T18:14:39.777Z,4.40
2023-05-10T18:17:07.060Z,4.80
2023-05-10T18:19:34.017Z,5.17
2023-05-10T18:22:00.499Z,4.20
2023-05-10T18:24:38.394Z,4.13
2023-05-10T18:27:07.545Z,3.70
2023-05-10T18:29:34.148Z,3.50
2023-05-10T18:32:00.607Z,3.77
2023-05-10T18:34:27.154Z,3.87
2023-05-10T18:36:53.656Z,3.27
2023-05-10T18:39:20.241Z,3.30
2023-05-10T18:41:46.694Z,3.17
2023-05-10T18:44:13.262Z,3.57
2023-05-10T18:46:39.941Z,3.20
2023-05-10T18:49:08.265Z,4.30
2023-05-10T18:51:34.984Z,3.20
2023-05-10T18:54:01.429Z,3.13
2023-05-10T18:56:28.348Z,3.27
2023-05-10T18:58:54.857Z,3.13
2023-05-10T19:01:21.461Z,2.77
2023-05-10T19:03:47.997Z,2.70
2023-05-10T19:06:14.482Z,3.00
2023-05-10T19:08:40.911Z,2.90
2023-05-10T19:11:07.611Z,3.30
2023-05-10T19:13:34.322Z,4.23
2023-05-10T19:16:14.054Z,2.90
2023-05-10T19:18:42.546Z,2.63
2023-05-10T19:21:10.921Z,3.20
2023-05-10T19:23:40.181Z,3.50
2023-05-10T19:26:06.665Z,3.40
2023-05-10T19:28:34.919Z,2.87
2023-05-10T19:31:01.734Z,3.40
2023-05-10T19:33:28.259Z,3.10
2023-05-10T19:35:55.432Z,3.30
2023-05-10T19:38:25.698Z,3.57
2023-05-10T19:40:58.011Z,3.17
2023-05-10T19:43:28.489Z,3.53
2023-05-10T19:45:58.244Z,3.70
2023-05-10T19:48:25.103Z,4.07
2023-05-10T19:50:52.673Z,3.60
2023-05-10T19:53:19.253Z,3.73
2023-05-10T19:55:46.115Z,4.97
2023-05-10T19:58:12.534Z,4.20
2023-05-10T20:00:39.068Z,4.70
2023-05-10T20:03:06.990Z,5.20
2023-05-10T20:05:35.694Z,5.73
2023-05-10T20:08:02.119Z,5.17
2023-05-10T20:10:28.608Z,5.33
2023-05-10T20:12:55.045Z,5.00
2023-05-10T20:15:23.329Z,4.97
2023-05-10T20:17:52.111Z,5.70
2023-05-10T20:20:20.163Z,6.30
2023-05-10T20:22:47.661Z,7.10
2023-05-10T20:25:15.116Z,7.13
2023-05-10T20:27:41.722Z,8.03
2023-05-10T20:30:09.642Z,7.63
2023-05-10T20:32:36.764Z,8.50
2023-05-10T20:35:03.838Z,8.10
2023-05-10T20:37:30.959Z,8.33
2023-05-10T20:39:57.611Z,7.73
2023-05-10T20:42:24.108Z,7.77
2023-05-10T20:44:51.061Z,8.47
2023-05-10T20:47:18.027Z,8.43
2023-05-10T20:49:44.507Z,9.40
2023-05-10T20:52:11.231Z,7.43
2023-05-10T20:54:37.845Z,7.90
2023-05-10T20:57:04.309Z,9.00
2023-05-10T20:59:30.760Z,8.67
2023-05-10T21:01:57.708Z,8.90
2023-05-10T21:04:25.423Z,9.40
2023-05-10T21:06:52.886Z,9.27
2023-05-10T21:09:19.610Z,8.93
2023-05-10T21:11:46.145Z,8.73
2023-05-10T21:14:12.672Z,14.67
2023-05-10T21:16:39.162Z,8.67
2023-05-10T21:19:07.380Z,10.30
2023-05-10T21:21:34.263Z,10.87
2023-05-10T21:24:00.938Z,9.60
2023-05-10T21:26:27.468Z,8.80
2023-05-10T21:28:54.064Z,10.50
2023-05-10T21:31:20.696Z,9.53
2023-05-10T21:33:47.241Z,13.63
2023-05-10T21:36:13.734Z,11.40
2023-05-10T21:38:41.139Z,10.17
2023-05-10T21:41:08.045Z,11.07
2023-05-10T21:43:34.734Z,10.80
2023-05-10T21:46:01.458Z,15.20
2023-05-10T21:48:28.110Z,11.87
2023-05-10T21:50:54.617Z,12.20
2023-05-10T21:53:22.293Z,13.80
2023-05-10T21:55:48.870Z,14.07
2023-05-10T21:58:15.523Z,13.50
2023-05-10T22:00:42.183Z,14.87
2023-05-10T22:03:08.876Z,17.53
2023-05-10T22:05:35.541Z,16.27
2023-05-10T22:08:02.129Z,25.30
2023-05-10T22:10:28.577Z,28.47
2023-05-10T22:12:55.230Z,15.83
2023-05-10T22:15:21.744Z,27.10
2023-05-10T22:17:48.515Z,20.03
2023-05-10T22:20:15.119Z,16.37
2023-05-10T22:22:41.710Z,17.90
2023-05-10T22:25:08.640Z,17.50
2023-05-10T22:27:35.415Z,19.67
2023-05-10T22:30:02.120Z,20.93
2023-05-10T22:32:28.676Z,17.27
2023-05-10T22:34:55.110Z,18.70
2023-05-10T22:37:21.722Z,17.20
2023-05-10T22:39:49.398Z,18.87
2023-05-10T22:42:16.256Z,16.17
2023-05-10T22:44:43.313Z,20.83
2023-05-10T22:47:10.151Z,14.60
2023-05-10T22:49:36.769Z,14.80
2023-05-10T22:52:03.251Z,15.07
2023-05-10T22:54:29.690Z,16.53
2023-05-10T22:56:56.669Z,16.53
2023-05-10T22:59:23.622Z,19.57
2023-05-10T23:01:50.672Z,15.57
2023-05-10T23:04:17.198Z,19.33
2023-05-10T23:06:43.728Z,16.20
2023-05-10T23:09:10.231Z,21.17
2023-05-10T23:11:36.716Z,20.93
2023-05-10T23:14:03.561Z,23.53
2023-05-10T23:16:30.481Z,18.03
2023-05-10T23:18:57.246Z,22.27
2023-05-10T23:21:25.129Z,22.80
2023-05-10T23:23:52.090Z,20.90
2023-05-10T23:26:18.572Z,22.67
2023-05-10T23:28:45.212Z,21.30
2023-05-10T23:31:11.649Z,25.03
2023-05-10T23:33:38.273Z,23.73
2023-05-10T23:36:05.002Z,25.90
2023-05-10T23:38:31.553Z,26.97
2023-05-10T23:40:58.024Z,25.43
2023-05-10T23:43:25.532Z,24.30
2023-05-10T23:45:56.673Z,24.30
2023-05-10T23:48:23.680Z,23.93
2023-05-10T23:50:50.203Z,24.87
2023-05-10T23:53:16.840Z,23.73
2023-05-10T23:55:43.457Z,25.90
2023-05-10T23:58:09.972Z,28.20
